Time;durP1;ratioP1;P1;durP2;ratioP2;P2;SDS_P1;SDS_P2;PMS_P1;PMS_P2;Temp;Humidity;BMP_temperature;BMP_pressure;BME280_temperature;BME280_humidity;BME280_pressure;Samples;Min_cycle;Max_cycle;Signal;HPM_P1;HPM_P2
2023/10/16 00:01:32;;;;;;;3.13;1.50;;;;;;;19.41;44.83;102349.63;4997769;28;20026;-62
2023/10/16 00:03:57;;;;;;;4.32;1.77;;;;;;;19.38;45.05;102350.66;4997308;28;20049;-63
2023/10/16 00:06:23;;;;;;;5.43;1.88;;;;;;;19.39;44.97;102354.16;4997955;28;20027;-62
2023/10/16 00:08:48;;;;;;;3.33;1.67;;;;;;;19.37;45.06;102345.47;4997668;28;20038;-63
2023/10/16 00:11:18;;;;;;;4.68;1.70;;;;;;;19.35;44.88;102348.22;4997205;28;20395;-63
2023/10/16 00:13:47;;;;;;;3.65;1.60;;;;;;;19.35;44.91;102339.44;4997371;28;20417;-64
2023/10/16 00:16:15;;;;;;;3.15;1.55;;;;;;;19.33;45.17;102334.25;4997227;28;20034;-62
2023/10/16 00:18:40;;;;;;;3.72;1.63;;;;;;;19.35;45.09;102342.09;4997317;28;20062;-63
2023/10/16 00:21:06;;;;;;;3.75;1.70;;;;;;;19.32;45.04;102337.00;4997288;28;20503;-62
2023/10/16 00:23:38;;;;;;;4.85;1.92;;;;;;;19.33;45.25;102346.63;4997282;28;20077;-62
2023/10/16 00:26:07;;;;;;;4.20;1.70;;;;;;;19.31;45.05;102340.56;4997038;28;20394;-62
2023/10/16 00:28:34;;;;;;;4.28;1.73;;;;;;;19.32;45.13;102348.41;4996966;28;20475;-62
2023/10/16 00:30:59;;;;;;;3.83;1.80;;;;;;;19.30;44.90;102342.38;4996369;28;20045;-63
2023/10/16 00:33:25;;;;;;;3.80;1.60;;;;;;;19.31;45.07;102344.09;4997643;28;20053;-63
2023/10/16 00:35:50;;;;;;;4.18;2.03;;;;;;;19.29;44.97;102345.94;4996772;28;20509;-63
2023/10/16 00:38:19;;;;;;;4.47;2.00;;;;;;;19.29;44.92;102339.84;4997308;28;20030;-63
2023/10/16 00:40:51;;;;;;;5.65;1.75;;;;;;;19.29;44.83;102343.31;4996836;28;20105;-63
2023/10/16 00:43:20;;;;;;;3.15;1.63;;;;;;;19.29;45.06;102345.13;4997145;28;20037;-63
2023/10/16 00:45:54;;;;;;;3.63;1.80;;;;;;;19.27;45.06;102344.38;4997081;28;20037;-63
2023/10/16 00:48:19;;;;;;;3.35;1.60;;;;;;;19.27;44.90;102341.72;4996830;28;20034;-64
2023/10/16 00:50:48;;;;;;;3.65;1.80;;;;;;;19.26;45.08;102345.31;4997225;28;20053;-63
2023/10/16 00:53:16;;;;;;;4.03;2.00;;;;;;;19.25;44.99;102344.47;4996672;28;20033;-62
2023/10/16 00:55:41;;;;;;;4.63;1.65;;;;;;;19.25;45.01;102346.25;4996431;28;20411;-63
2023/10/16 00:58:07;;;;;;;4.20;1.85;;;;;;;19.25;44.91;102335.66;4996965;28;20034;-63
2023/10/16 01:00:36;;;;;;;4.53;2.10;;;;;;;19.23;44.89;102338.41;4996950;28;20049;-62
2023/10/16 01:03:04;;;;;;;3.38;1.58;;;;;;;19.23;44.81;102338.41;4996911;28;20030;-62
2023/10/16 01:05:33;;;;;;;3.47;1.63;;;;;;;19.22;45.24;102339.38;4996897;28;20057;-63
2023/10/16 01:08:00;;;;;;;4.88;1.70;;;;;;;19.23;44.89;102333.13;4997034;28;20052;-62
2023/10/16 01:10:27;;;;;;;3.78;1.58;;;;;;;19.21;44.81;102333.22;4996598;28;20164;-62
2023/10/16 01:12:55;;;;;;;3.60;2.10;;;;;;;19.22;44.80;102334.09;4996922;28;20065;-63
2023/10/16 01:15:22;;;;;;;5.03;1.80;;;;;;;19.19;44.73;102329.81;4997367;28;20059;-64
2023/10/16 01:17:47;;;;;;;4.15;1.83;;;;;;;19.20;44.76;102325.38;5000526;28;20041;-63
2023/10/16 01:20:13;;;;;;;3.90;1.90;;;;;;;19.18;44.74;102322.88;5000481;28;20030;-62
2023/10/16 01:22:38;;;;;;;4.07;1.65;;;;;;;19.18;44.85;102312.28;5000860;28;20038;-63
2023/10/16 01:25:08;;;;;;;3.22;1.70;;;;;;;19.17;44.75;102315.88;5000662;28;20064;-63
2023/10/16 01:27:37;;;;;;;3.65;1.98;;;;;;;19.18;44.62;102317.56;5000605;28;20402;-63
2023/10/16 01:30:05;;;;;;;3.80;2.08;;;;;;;19.18;44.90;102322.00;5000413;28;20156;-63
2023/10/16 01:32:31;;;;;;;4.45;1.88;;;;;;;19.17;44.70;102321.16;5000759;28;20076;-62
2023/10/16 01:34:59;;;;;;;4.15;1.85;;;;;;;19.14;44.69;102313.41;5000506;28;20113;-63
2023/10/16 01:37:25;;;;;;;4.68;1.75;;;;;;;19.14;44.71;102316.06;5000074;28;20045;-62
2023/10/16 01:39:54;;;;;;;5.03;2.13;;;;;;;19.16;44.75;102313.31;5000040;28;20030;-66
2023/10/16 01:42:19;;;;;;;4.30;1.80;;;;;;;19.14;44.73;102315.22;5000415;28;20041;-63
2023/10/16 01:44:45;;;;;;;4.60;2.05;;;;;;;19.14;44.71;102312.56;4999466;28;20042;-62
2023/10/16 01:47:15;;;;;;;5.05;1.85;;;;;;;19.14;44.66;102315.22;5000385;28;20417;-63
2023/10/16 01:49:41;;;;;;;3.92;1.80;;;;;;;19.12;44.77;102312.66;5000100;28;20026;-63
2023/10/16 01:52:10;;;;;;;4.72;1.90;;;;;;;19.13;44.53;102308.22;5000435;28;20405;-62
2023/10/16 01:54:38;;;;;;;4.43;1.83;;;;;;;19.11;44.68;102308.31;4999550;28;20034;-63
2023/10/16 01:57:10;;;;;;;4.95;1.92;;;;;;;19.10;44.65;102300.50;4999799;28;20069;-64
2023/10/16 01:59:36;;;;;;;4.03;1.95;;;;;;;19.10;44.75;102306.63;4999639;28;20504;-63
2023/10/16 02:02:01;;;;;;;4.25;2.00;;;;;;;19.10;44.68;102305.78;4999865;28;20043;-64
2023/10/16 02:04:27;;;;;;;4.43;1.98;;;;;;;19.10;44.73;102311.91;5000197;28;20113;-62
2023/10/16 02:06:52;;;;;;;4.68;1.83;;;;;;;19.09;44.73;102304.94;5000092;28;20147;-64
2023/10/16 02:09:23;;;;;;;4.60;2.10;;;;;;;19.11;44.53;102310.13;4999519;28;20417;-62
2023/10/16 02:11:48;;;;;;;3.63;1.90;;;;;;;19.09;44.66;102304.06;4999707;28;20280;-63
2023/10/16 02:14:13;;;;;;;4.28;1.85;;;;;;;19.08;44.61;102307.66;4999391;28;20041;-64
2023/10/16 02:16:41;;;;;;;4.00;2.20;;;;;;;19.08;44.70;102300.59;4999684;28;20100;-63
2023/10/16 02:19:06;;;;;;;4.53;2.03;;;;;;;19.08;44.67;102300.59;4999450;28;20038;-63
2023/10/16 02:21:32;;;;;;;6.07;2.20;;;;;;;19.03;44.62;102295.59;4999576;28;20030;-62
2023/10/16 02:24:03;;;;;;;4.45;2.17;;;;;;;19.05;44.64;102292.00;4999748;28;20477;-63
2023/10/16 02:26:30;;;;;;;4.45;2.38;;;;;;;19.05;44.79;102292.00;4999091;28;20042;-62
2023/10/16 02:28:58;;;;;;;3.85;1.90;;;;;;;19.03;44.60;102294.75;4999316;28;20138;-63
2023/10/16 02:31:24;;;;;;;4.25;2.20;;;;;;;19.05;44.55;102297.28;4999571;28;20437;-63
2023/10/16 02:34:01;;;;;;;4.38;2.30;;;;;;;19.03;44.62;102292.09;4999499;28;20100;-63
2023/10/16 02:36:27;;;;;;;3.70;1.85;;;;;;;19.03;44.72;102285.00;4998802;28;20096;-63
2023/10/16 02:38:53;;;;;;;4.47;1.98;;;;;;;19.02;44.39;102285.94;4999270;28;20430;-62
2023/10/16 02:41:19;;;;;;;4.35;1.90;;;;;;;19.01;44.49;102286.06;4998995;28;20488;-62
2023/10/16 02:43:47;;;;;;;3.95;1.98;;;;;;;19.00;44.54;102290.47;4999485;28;20041;-64
2023/10/16 02:46:13;;;;;;;4.15;1.85;;;;;;;18.99;44.44;102286.16;4999488;28;20117;-62
2023/10/16 02:48:42;;;;;;;5.07;2.05;;;;;;;18.98;44.55;102288.91;4999230;28;20046;-62
2023/10/16 02:51:09;;;;;;;4.75;2.00;;;;;;;19.00;44.45;102287.00;4999412;28;20041;-63
2023/10/16 02:53:36;;;;;;;4.70;1.80;;;;;;;18.99;44.25;102283.53;4999360;28;20474;-64
2023/10/16 02:56:05;;;;;;;4.78;2.03;;;;;;;18.99;44.34;102285.28;4997631;28;20446;-63
2023/10/16 02:58:32;;;;;;;4.20;1.75;;;;;;;18.97;44.48;102282.75;4998867;28;20033;-63
2023/10/16 03:00:59;;;;;;;3.92;1.77;;;;;;;18.98;44.52;102281.81;5014039;28;20029;-63
2023/10/16 03:03:26;;;;;;;4.03;2.05;;;;;;;18.98;44.39;102284.47;4999077;28;20053;-63
2023/10/16 03:05:53;;;;;;;4.13;1.90;;;;;;;18.98;44.59;102283.63;4998208;28;20084;-63
2023/10/16 03:08:18;;;;;;;3.95;1.83;;;;;;;18.98;44.38;102289.75;4998700;28;20128;-63
2023/10/16 03:10:45;;;;;;;4.72;2.03;;;;;;;18.98;44.43;102280.97;4997481;28;20475;-62
2023/10/16 03:13:13;;;;;;;3.53;2.00;;;;;;;18.97;44.52;102280.09;4998878;28;20081;-62
2023/10/16 03:15:42;;;;;;;4.13;2.03;;;;;;;18.97;44.27;102281.91;4998559;28;20105;-63
2023/10/16 03:18:16;;;;;;;5.00;2.00;;;;;;;18.96;44.49;102277.56;4998461;28;20105;-62
2023/10/16 03:20:46;;;;;;;4.05;1.95;;;;;;;18.94;44.41;102275.00;4998557;28;20069;-63
2023/10/16 03:23:13;;;;;;;4.28;2.10;;;;;;;18.97;44.46;102279.28;4998361;28;20041;-62
2023/10/16 03:28:06;;;;;;;5.75;2.03;;;;;;;18.94;44.41;102274.19;4998192;28;20883;-64
2023/10/16 03:30:31;;;;;;;4.10;1.92;;;;;;;18.93;44.45;102275.09;4998690;28;21612;-64
2023/10/16 03:32:58;;;;;;;4.25;2.03;;;;;;;18.92;44.31;102274.28;4998493;28;20042;-63
2023/10/16 03:35:26;;;;;;;4.50;2.13;;;;;;;18.92;44.36;102279.56;4997401;28;20394;-62
2023/10/16 03:37:55;;;;;;;4.88;2.30;;;;;;;18.92;44.20;102274.28;4997590;28;20037;-64
2023/10/16 03:40:21;;;;;;;6.25;2.20;;;;;;;18.89;44.27;102266.53;4998056;28;20034;-62
2023/10/16 03:42:47;;;;;;;4.50;1.95;;;;;;;18.92;44.24;102276.06;4998292;28;20378;-63
2023/10/16 03:45:16;;;;;;;3.97;2.10;;;;;;;18.89;44.40;102269.19;4997797;28;20041;-63
2023/10/16 03:47:42;;;;;;;4.10;1.83;;;;;;;18.90;44.11;102273.53;4997888;28;20038;-64
2023/10/16 03:50:08;;;;;;;4.68;2.08;;;;;;;18.89;44.19;102271.81;4998085;28;20045;-63
2023/10/16 03:52:35;;;;;;;4.50;2.10;;;;;;;18.89;44.20;102274.47;4998035;28;20604;-63
2023/10/16 03:55:20;;;;;;;4.00;2.20;;;;;;;18.89;44.23;102274.47;4998175;28;20038;-63
2023/10/16 03:57:45;;;;;;;;;;;;;;;18.91;44.19;102269.91;4998367;28;20041;-62
2023/10/16 04:00:15;;;;;;;4.72;1.90;;;;;;;18.90;43.78;102272.66;4997346;28;19913;-62
2023/10/16 04:02:41;;;;;;;4.05;1.95;;;;;;;18.89;44.20;102266.53;4997898;28;20041;-62
2023/10/16 04:05:27;;;;;;;5.47;2.22;;;;;;;18.88;44.07;102270.09;4997286;28;20479;-62
2023/10/16 04:07:52;;;;;;;4.07;1.85;;;;;;;18.85;43.92;102273.81;4997708;28;20057;-62
2023/10/16 04:10:30;;;;;;;3.90;1.83;;;;;;;18.83;44.05;102269.53;4997605;28;20530;-62
2023/10/16 04:12:57;;;;;;;4.18;2.10;;;;;;;18.82;43.97;102262.56;4997219;28;20812;-64
2023/10/16 04:15:37;;;;;;;4.70;2.47;;;;;;;18.83;43.91;102265.09;4997341;28;20042;-63
2023/10/16 04:18:04;;;;;;;4.70;2.47;;;;;;;18.80;43.88;102262.66;4997631;28;20515;-63
2023/10/16 04:20:43;;;;;;;3.55;1.75;;;;;;;18.81;44.14;102255.56;5003973;28;20391;-63
2023/10/16 04:23:29;;;;;;;4.55;2.22;;;;;;;18.79;43.88;102258.31;4996263;28;20033;-62
2023/10/16 04:26:29;;;;;;;4.35;2.00;;;;;;;18.81;43.86;102259.03;4996762;28;20078;-63
2023/10/16 04:31:44;;;;;;;5.05;2.17;;;;;;;18.80;43.62;102253.84;4997017;28;20084;-63
2023/10/16 04:37:24;;;;;;;4.72;2.17;;;;;;;18.79;43.94;102247.75;4997155;28;20041;-62
2023/10/16 04:47:48;;;;;;;4.20;2.00;;;;;;;18.78;43.84;102238.09;4997334;28;20027;-62
2023/10/16 04:50:27;;;;;;;4.03;2.08;;;;;;;18.77;43.92;102239.06;4996401;28;20034;-62
2023/10/16 05:06:14;;;;;;;4.15;2.20;;;;;;;18.76;43.78;102234.72;4996448;28;20108;-63
2023/10/16 05:08:59;;;;;;;3.80;1.90;;;;;;;18.75;43.91;102234.81;4997251;28;20461;-62
2023/10/16 05:19:46;;;;;;;4.22;2.10;;;;;;;18.85;44.18;102226.25;5023983;28;20127;-62
2023/10/16 06:14:12;;;;;;;3.25;1.80;;;;;;;19.24;45.04;102229.09;4999527;28;20394;-62
2023/10/16 06:16:47;;;;;;;4.50;1.73;;;;;;;19.24;45.44;102220.34;4999610;28;20049;-63
2023/10/16 06:19:19;;;;;;;4.63;1.70;;;;;;;19.25;45.14;102222.88;4999344;28;20402;-64
2023/10/16 06:21:47;;;;;;;5.10;1.98;;;;;;;19.27;45.00;102225.44;4999166;28;20037;-62
2023/10/16 06:24:28;;;;;;;4.72;1.98;;;;;;;19.28;45.05;102219.19;4999086;28;20463;-60
2023/10/16 06:26:54;;;;;;;4.05;1.65;;;;;;;19.28;45.02;102216.53;4999733;28;20037;-62
2023/10/16 06:29:20;;;;;;;3.80;1.77;;;;;;;19.28;45.17;102222.69;4998995;28;20433;-62
2023/10/16 06:31:53;;;;;;;3.80;1.92;;;;;;;19.29;45.03;102226.16;4999020;28;20030;-62
2023/10/16 06:34:24;;;;;;;8.93;2.53;;;;;;;19.30;45.02;102226.06;4999405;28;20045;-62
2023/10/16 06:36:53;;;;;;;4.03;1.92;;;;;;;19.30;45.10;102228.72;4999197;28;20113;-62
2023/10/16 06:39:28;;;;;;;4.13;1.92;;;;;;;19.32;44.98;102224.16;4954529;27;20058;-62
2023/10/16 06:41:57;;;;;;;4.13;1.85;;;;;;;19.31;45.22;102219.84;4997416;28;20037;-61
2023/10/16 06:44:28;;;;;;;4.80;2.13;;;;;;;19.35;45.16;102218.69;4998847;28;20554;-62
2023/10/16 06:46:58;;;;;;;5.43;1.92;;;;;;;19.30;45.53;102218.16;4998489;28;20038;-61
2023/10/16 06:49:26;;;;;;;4.55;2.00;;;;;;;19.30;45.62;102220.78;4999237;28;20036;-61
2023/10/16 06:51:52;;;;;;;3.88;1.80;;;;;;;19.34;45.33;102224.94;4998902;28;20030;-61
2023/10/16 06:54:18;;;;;;;5.22;1.95;;;;;;;19.35;45.26;102225.78;4999151;28;20038;-62
2023/10/16 06:56:44;;;;;;;4.78;1.90;;;;;;;19.35;45.46;102231.91;4998981;28;20553;-61
2023/10/16 06:59:10;;;;;;;4.40;2.00;;;;;;;19.35;45.20;102225.78;4996564;28;20038;-61
2023/10/16 07:01:38;;;;;;;4.70;1.75;;;;;;;19.35;45.55;102231.91;4998284;28;20092;-62
2023/10/16 07:04:05;;;;;;;4.28;2.08;;;;;;;19.34;45.03;102226.72;4998731;28;20395;-63
2023/10/16 07:06:34;;;;;;;3.63;2.20;;;;;;;19.35;45.49;102234.53;5005736;28;20034;-63
2023/10/16 07:09:03;;;;;;;5.30;2.20;;;;;;;19.33;45.42;102239.09;4998597;28;20054;-62
2023/10/16 07:11:29;;;;;;;6.93;2.20;;;;;;;19.32;45.32;102232.09;4996408;28;20496;-62
2023/10/16 07:13:54;;;;;;;5.40;2.35;;;;;;;19.32;45.34;102233.91;4997210;28;20454;-61
2023/10/16 07:16:20;;;;;;;4.53;1.95;;;;;;;19.33;45.28;102239.09;4998934;28;20041;-62
2023/10/16 07:18:45;;;;;;;5.25;1.90;;;;;;;19.32;45.09;102232.09;4998922;28;20116;-62
2023/10/16 07:21:17;;;;;;;5.13;2.20;;;;;;;19.32;45.10;102231.25;4997797;28;20201;-64
2023/10/16 07:23:43;;;;;;;4.85;2.10;;;;;;;19.24;45.63;102231.75;4998369;28;20022;-63
2023/10/16 07:26:09;;;;;;;4.40;1.83;;;;;;;19.21;46.20;102232.78;4998470;28;20088;-62
2023/10/16 07:28:36;;;;;;;3.45;1.70;;;;;;;19.23;45.91;102232.69;4998187;28;20038;-64
2023/10/16 07:31:05;;;;;;;3.88;1.60;;;;;;;19.23;46.01;102235.31;4998153;28;20026;-62
2023/10/16 07:33:32;;;;;;;4.78;1.60;;;;;;;19.24;46.37;102234.38;4998460;28;20490;-63
2023/10/16 07:35:59;;;;;;;3.97;1.60;;;;;;;19.25;45.89;102233.47;4998647;28;20033;-65
2023/10/16 07:38:26;;;;;;;4.50;1.67;;;;;;;19.29;45.72;102232.28;4998086;28;20445;-63
2023/10/16 07:40:59;;;;;;;3.63;1.58;;;;;;;19.32;45.72;102229.47;4997804;28;20029;-63
2023/10/16 07:43:29;;;;;;;6.97;1.90;;;;;;;19.32;45.23;102226.81;4995517;28;20483;-62
2023/10/16 07:48:40;;;;;;;4.68;2.33;;;;;;;19.21;45.43;102222.22;4996988;28;20398;-62
2023/10/16 07:51:07;;;;;;;4.30;2.05;;;;;;;19.16;45.75;102226.13;4997214;28;20030;-63
2023/10/16 07:53:36;;;;;;;5.43;1.90;;;;;;;19.13;45.76;102218.38;4997287;28;20027;-62
2023/10/16 07:56:02;;;;;;;6.43;1.90;;;;;;;19.10;45.88;102218.56;4997490;28;20026;-61
2023/10/16 07:58:34;;;;;;;4.35;2.00;;;;;;;19.07;46.13;102221.41;4997059;28;20037;-63
2023/10/16 08:03:36;;;;;;;5.80;2.42;;;;;;;19.02;46.31;102234.91;4996338;28;20029;-61
2023/10/16 08:06:05;;;;;;;3.88;1.70;;;;;;;19.01;46.12;102234.06;4996818;28;20030;-65
2023/10/16 08:08:37;;;;;;;3.92;1.88;;;;;;;18.99;46.11;102229.81;4997360;28;20053;-62
2023/10/16 08:11:18;;;;;;;3.53;1.77;;;;;;;18.97;46.52;102235.19;4997671;28;20053;-64
2023/10/16 08:13:47;;;;;;;5.93;2.10;;;;;;;19.02;46.16;102233.09;4996844;28;20038;-64
2023/10/16 08:16:17;;;;;;;4.40;1.90;;;;;;;19.01;46.18;102231.44;4996679;28;20038;-62
2023/10/16 08:18:47;;;;;;;3.90;1.80;;;;;;;19.03;46.23;102236.63;4996690;28;20486;-62
2023/10/16 08:21:23;;;;;;;4.85;1.92;;;;;;;19.02;46.04;102233.09;4996727;28;20033;-62
2023/10/16 08:23:50;;;;;;;5.13;2.05;;;;;;;19.01;45.91;102239.34;4996559;28;20030;-62
2023/10/16 08:26:19;;;;;;;5.25;1.88;;;;;;;19.02;46.10;102233.09;4996451;28;20026;-64
2023/10/16 08:28:45;;;;;;;4.35;1.98;;;;;;;19.04;46.35;102235.66;4996496;28;20030;-62
2023/10/16 08:31:23;;;;;;;5.03;2.08;;;;;;;19.02;46.44;102232.25;4996308;28;20035;-62
2023/10/16 08:33:50;;;;;;;4.93;1.95;;;;;;;19.05;46.49;102231.22;4995828;28;20049;-62
2023/10/16 08:36:18;;;;;;;4.30;1.80;;;;;;;19.05;46.48;102225.94;4996242;28;20084;-63
2023/10/16 08:38:51;;;;;;;5.82;1.90;;;;;;;19.03;46.57;102226.88;4996577;28;20044;-62
2023/10/16 08:41:23;;;;;;;4.82;2.00;;;;;;;19.03;46.57;102215.47;4996385;28;20042;-62
2023/10/16 08:44:03;;;;;;;4.38;1.90;;;;;;;19.06;46.50;102228.50;4996225;28;20041;-62
2023/10/16 08:46:34;;;;;;;4.40;1.60;;;;;;;19.04;46.56;102222.44;4996706;28;20077;-62
2023/10/16 08:49:01;;;;;;;3.55;1.80;;;;;;;19.05;46.45;102228.59;4996107;28;20034;-65
2023/10/16 08:51:30;;;;;;;4.05;2.03;;;;;;;19.05;46.38;102237.34;4996199;28;20045;-62
2023/10/16 08:54:01;;;;;;;4.20;1.85;;;;;;;19.07;46.49;102229.34;4996116;28;20021;-63
2023/10/16 08:56:26;;;;;;;6.55;1.73;;;;;;;19.06;46.61;102231.13;4996144;28;20077;-63
2023/10/16 08:58:57;;;;;;;6.43;1.63;;;;;;;19.06;46.64;102228.50;4996490;28;20054;-62
2023/10/16 09:01:28;;;;;;;5.13;1.92;;;;;;;19.06;46.85;102236.41;4996160;28;20033;-63
2023/10/16 09:04:08;;;;;;;5.50;1.80;;;;;;;19.06;46.76;102248.75;4995911;28;20396;-63
2023/10/16 09:06:38;;;;;;;3.58;1.52;;;;;;;19.07;46.84;102246.03;4995461;28;20041;-63
2023/10/16 09:09:13;;;;;;;5.63;1.83;;;;;;;19.08;46.90;102236.31;4996348;28;20165;-62
2023/10/16 09:11:42;;;;;;;4.28;1.75;;;;;;;19.07;46.73;102239.91;4995289;28;20038;-64
2023/10/16 09:14:13;;;;;;;5.03;2.28;;;;;;;19.09;47.04;102236.22;4996171;28;20084;-63
2023/10/16 09:16:43;;;;;;;4.47;1.80;;;;;;;19.08;46.93;102226.59;4995937;28;20034;-65
2023/10/16 09:19:11;;;;;;;6.90;1.70;;;;;;;19.12;47.01;102251.03;4995923;28;20124;-63
2023/10/16 09:21:39;;;;;;;5.68;1.70;;;;;;;19.12;46.78;102237.81;4995767;28;20436;-65
2023/10/16 09:24:05;;;;;;;4.43;1.85;;;;;;;19.11;46.77;102230.84;4996213;28;20056;-62
2023/10/16 09:26:32;;;;;;;3.95;1.60;;;;;;;19.11;47.23;102231.69;4995847;28;20037;-63
2023/10/16 09:29:04;;;;;;;3.90;1.55;;;;;;;19.10;47.27;102237.06;5003087;28;20022;-64
2023/10/16 09:31:31;;;;;;;4.25;1.50;;;;;;;19.11;47.27;102230.84;4995487;28;20038;-62
2023/10/16 09:33:56;;;;;;;4.35;1.67;;;;;;;19.11;47.30;102228.22;4995758;28;20046;-63
2023/10/16 09:36:21;;;;;;;3.38;1.85;;;;;;;19.11;47.21;102231.69;4996758;28;20497;-64
2023/10/16 09:38:51;;;;;;;4.70;1.60;;;;;;;19.11;47.26;102230.84;4999993;28;20071;-63
2023/10/16 09:44:05;;;;;;;3.42;1.50;;;;;;;19.09;47.21;102224.78;4999660;28;20049;-63
2023/10/16 09:49:14;;;;;;;3.85;1.40;;;;;;;19.11;47.16;102230.84;5000148;28;20123;-62
2023/10/16 09:51:40;;;;;;;4.65;1.90;;;;;;;19.12;47.33;102224.59;4998702;28;20030;-63
2023/10/16 09:54:09;;;;;;;4.05;1.40;;;;;;;19.15;47.34;102227.91;4999363;28;20033;-64
2023/10/16 09:56:39;;;;;;;4.97;1.55;;;;;;;19.14;47.32;102231.50;4998940;28;20048;-63
2023/10/16 09:59:12;;;;;;;7.80;1.63;;;;;;;19.13;47.45;102232.44;4999095;28;20034;-62
2023/10/16 10:01:44;;;;;;;4.25;1.40;;;;;;;19.11;47.50;102229.03;4999284;28;20406;-63
2023/10/16 10:04:11;;;;;;;4.97;1.55;;;;;;;19.13;47.41;102231.59;4999307;28;20176;-65
2023/10/16 10:06:42;;;;;;;3.13;1.60;;;;;;;19.13;47.49;102223.66;4999333;28;20502;-65
2023/10/16 10:11:58;;;;;;;2.90;1.10;;;;;;;19.12;47.58;102224.59;4999268;28;20049;-63
2023/10/16 10:14:27;;;;;;;;;;;;;;;19.16;47.34;102228.75;4999653;28;20034;-63
2023/10/16 10:16:58;;;;;;;3.72;1.27;;;;;;;19.12;47.35;102220.19;4998896;28;19917;-64
2023/10/16 10:19:32;;;;;;;3.65;1.30;;;;;;;19.12;47.48;102216.66;5014502;28;20077;-64
2023/10/16 10:22:06;;;;;;;3.20;1.20;;;;;;;19.12;47.17;102212.25;4999424;28;20021;-64
2023/10/16 10:24:39;;;;;;;3.72;1.40;;;;;;;19.11;47.15;102218.47;4998939;28;20990;-65
2023/10/16 10:27:11;;;;;;;2.63;1.00;;;;;;;19.12;47.26;102219.31;4999193;28;20034;-64
2023/10/16 10:29:37;;;;;;;3.67;1.15;;;;;;;19.13;47.50;102213.09;5005464;28;20038;-63
2023/10/16 10:32:06;;;;;;;4.00;1.27;;;;;;;19.12;47.49;102212.25;4998822;28;20118;-62
2023/10/16 10:34:31;;;;;;;5.75;1.30;;;;;;;19.14;47.49;102209.50;4999052;28;20431;-63
2023/10/16 10:36:59;;;;;;;4.00;1.20;;;;;;;19.16;47.48;102216.38;4998742;28;20037;-63
2023/10/16 10:41:55;;;;;;;3.70;1.20;;;;;;;19.17;47.39;102212.81;4998445;28;20057;-63
2023/10/16 10:44:39;;;;;;;5.22;2.22;;;;;;;19.25;47.44;102217.59;4995986;28;20041;-64
2023/10/16 10:47:18;;;;;;;4.22;1.20;;;;;;;19.24;47.49;102209.75;4996525;28;20081;-63
2023/10/16 10:49:44;;;;;;;2.97;1.20;;;;;;;19.22;47.58;102209.88;4995570;28;20029;-63
2023/10/16 10:52:12;;;;;;;5.35;1.05;;;;;;;19.19;47.52;102210.91;4996554;28;20492;-62
2023/10/16 10:54:44;;;;;;;3.35;1.23;;;;;;;19.18;47.72;102203.06;4998197;28;20025;-63
2023/10/16 10:57:20;;;;;;;2.78;1.20;;;;;;;19.18;47.79;102197.78;4996980;28;20080;-63
2023/10/16 10:59:54;;;;;;;5.05;1.35;;;;;;;19.18;47.92;102196.00;4998125;28;20080;-64
2023/10/16 11:02:22;;;;;;;4.78;1.10;;;;;;;19.17;47.72;102198.75;4997739;28;20036;-62
2023/10/16 11:04:58;;;;;;;3.50;1.30;;;;;;;19.14;47.94;102197.13;4997810;28;20033;-66
2023/10/16 11:08:17;;;;;;;9.70;1.13;;;;;;;19.14;47.81;102199.78;4997764;28;20058;-65
2023/10/16 11:10:36;;;;;;;2.55;1.02;;;;;;;19.17;47.87;102198.75;4997411;28;20084;-66
2023/10/16 11:13:03;;;;;;;3.50;1.00;;;;;;;19.24;47.42;102189.47;4997343;28;20074;-65
2023/10/16 11:15:30;;;;;;;3.83;1.23;;;;;;;19.32;47.28;102188.97;4997623;28;20046;-65
2023/10/16 11:18:05;;;;;;;4.03;1.10;;;;;;;19.40;47.43;102195.44;4997709;28;20434;-64
2023/10/16 11:20:36;;;;;;;3.03;1.08;;;;;;;19.41;47.24;102188.38;4995966;28;20029;-64
2023/10/16 11:23:12;;;;;;;3.90;0.93;;;;;;;19.31;47.34;102184.63;4996804;28;20030;-64
2023/10/16 11:25:39;;;;;;;3.70;1.65;;;;;;;19.25;47.56;102185.88;4997183;28;20164;-67
2023/10/16 11:28:07;;;;;;;5.15;1.13;;;;;;;19.22;47.60;102183.44;4997081;28;20057;-66
2023/10/16 11:30:39;;;;;;;5.05;1.33;;;;;;;19.18;47.74;102180.16;4997346;28;20034;-65
2023/10/16 11:33:08;;;;;;;2.55;0.90;;;;;;;19.20;47.78;102185.31;4996792;28;20545;-64
2023/10/16 11:35:34;;;;;;;5.20;1.02;;;;;;;19.18;47.92;102171.34;4997264;28;20030;-66
2023/10/16 11:38:04;;;;;;;3.83;1.20;;;;;;;19.17;47.70;102170.53;4997395;28;20053;-66
2023/10/16 11:40:39;;;;;;;3.42;1.08;;;;;;;19.19;47.69;102173.06;4997062;28;20038;-66
2023/10/16 11:43:07;;;;;;;1.85;0.80;;;;;;;19.17;47.60;102162.59;4997278;28;20113;-65
2023/10/16 11:45:33;;;;;;;4.47;1.00;;;;;;;19.15;47.42;102159.22;4997511;28;20038;-66
2023/10/16 11:50:57;;;;;;;2.75;0.80;;;;;;;19.16;47.79;102165.34;4997317;28;20095;-66
2023/10/16 11:53:28;;;;;;;4.35;0.90;;;;;;;19.15;47.69;102161.84;4996875;28;20479;-65
2023/10/16 11:55:53;;;;;;;3.08;1.00;;;;;;;19.14;47.66;102154.88;4996999;28;20048;-65
2023/10/16 11:58:19;;;;;;;3.80;0.80;;;;;;;19.13;47.62;102153.16;4997155;28;20470;-64
2023/10/16 12:00:54;;;;;;;2.73;0.90;;;;;;;19.14;47.44;102149.56;4996841;28;20041;-65
2023/10/16 12:03:23;;;;;;;2.00;0.85;;;;;;;19.17;47.56;102145.91;4996581;28;20271;-68
2023/10/16 12:05:50;;;;;;;4.95;1.08;;;;;;;19.18;47.50;102135.22;4995894;28;20042;-65
2023/10/16 12:08:18;;;;;;;5.60;0.80;;;;;;;19.29;47.65;102136.31;4995047;28;20031;-64
2023/10/16 12:10:48;;;;;;;3.33;0.80;;;;;;;19.40;47.22;102136.44;4996527;28;20038;-65
2023/10/16 12:13:13;;;;;;;3.25;0.95;;;;;;;19.47;46.96;102134.22;4996576;28;20065;-65
2023/10/16 12:15:43;;;;;;;7.80;1.00;;;;;;;19.43;46.78;102130.13;4994231;28;20058;-65
2023/10/16 12:18:09;;;;;;;2.50;0.80;;;;;;;19.28;47.29;102124.91;4995667;28;20049;-64
2023/10/16 12:20:37;;;;;;;3.10;0.80;;;;;;;19.23;47.47;102126.97;4996138;28;20060;-65
2023/10/16 12:23:04;;;;;;;6.95;1.40;;;;;;;19.19;47.55;102125.50;4996799;28;20676;-66
2023/10/16 12:25:30;;;;;;;4.72;0.70;;;;;;;19.18;47.79;102124.66;4996255;28;20466;-64
2023/10/16 12:27:55;;;;;;;4.15;0.93;;;;;;;19.19;47.83;102123.69;4996072;28;20030;-65
2023/10/16 12:30:20;;;;;;;3.00;0.80;;;;;;;19.21;47.75;102121.78;4996511;28;20443;-65
2023/10/16 12:32:46;;;;;;;2.60;0.80;;;;;;;19.21;47.75;102123.59;4996347;28;20386;-64
2023/10/16 12:35:12;;;;;;;3.58;0.90;;;;;;;19.18;47.91;102115.88;4996809;28;20052;-69
2023/10/16 12:37:38;;;;;;;2.88;0.82;;;;;;;19.18;48.24;102110.56;4996681;28;20403;-63
2023/10/16 12:40:24;;;;;;;4.75;1.10;;;;;;;19.20;48.30;102113.94;4996741;28;20498;-67
2023/10/16 12:42:53;;;;;;;5.20;1.05;;;;;;;19.18;48.22;102103.50;4996558;28;20044;-65
2023/10/16 12:45:19;;;;;;;2.28;0.70;;;;;;;19.19;48.15;102107.00;4995864;28;20104;-65
2023/10/16 12:47:44;;;;;;;2.58;0.98;;;;;;;19.17;48.13;102096.53;4996733;28;21178;-64
2023/10/16 12:50:11;;;;;;;7.22;1.00;;;;;;;19.19;48.18;102102.53;4996462;28;20454;-64
2023/10/16 12:52:36;;;;;;;2.50;0.75;;;;;;;19.18;48.13;102107.94;4996355;28;20474;-64
2023/10/16 12:55:02;;;;;;;3.75;1.35;;;;;;;19.17;48.22;102103.63;4996537;28;20921;-65
2023/10/16 12:57:28;;;;;;;3.00;1.00;;;;;;;19.18;48.17;102098.22;4995098;28;20022;-63
2023/10/16 12:59:56;;;;;;;1.30;0.65;;;;;;;19.18;48.22;102094.72;4995966;28;20034;-64
2023/10/16 13:02:25;;;;;;;2.60;0.75;;;;;;;19.19;48.22;102101.72;4995831;28;20037;-63
2023/10/16 13:04:51;;;;;;;2.65;0.88;;;;;;;19.17;48.05;102095.69;4996408;28;20478;-63
2023/10/16 13:07:16;;;;;;;3.70;0.90;;;;;;;19.17;48.01;102095.69;4996006;28;20034;-63
2023/10/16 13:09:43;;;;;;;4.82;0.95;;;;;;;19.20;48.17;102100.75;4996591;28;20038;-64
2023/10/16 13:12:09;;;;;;;1.95;0.70;;;;;;;19.20;48.05;102100.75;4995316;28;20424;-65
2023/10/16 13:14:35;;;;;;;2.78;0.75;;;;;;;19.20;48.07;102093.69;4996120;28;20069;-65
2023/10/16 13:17:00;;;;;;;2.50;0.80;;;;;;;19.17;47.93;102091.25;4996231;28;20034;-63
2023/10/16 13:19:27;;;;;;;3.92;0.90;;;;;;;19.18;48.07;102094.72;4996293;28;20116;-64
2023/10/16 13:21:53;;;;;;;3.00;0.80;;;;;;;19.19;48.15;102093.78;4996134;28;20029;-63
2023/10/16 13:24:23;;;;;;;2.25;0.80;;;;;;;19.18;48.01;102084.16;4995550;28;20030;-64